sensor_id;sensor_type;location;lat;lon;timestamp;pressure;altitude;pressure_sealevel;temperature;humidity
35655;BME280;21773;50.010;19.972;2023-05-24T00:00:22;98400.78;;;21.31;75.10
35655;BME280;21773;50.010;19.972;2023-05-24T00:03:26;98392.66;;;21.26;73.83
35655;BME280;21773;50.010;19.972;2023-05-24T00:06:32;98396.44;;;21.30;74.41
35655;BME280;21773;50.010;19.972;2023-05-24T00:09:37;98400.50;;;21.33;74.20
35655;BME280;21773;50.010;19.972;2023-05-24T00:12:40;98394.72;;;21.34;74.05
35655;BME280;21773;50.010;19.972;2023-05-24T00:15:44;98400.78;;;21.31;73.44
35655;BME280;21773;50.010;19.972;2023-05-24T00:18:47;98396.22;;;21.27;73.91
35655;BME280;21773;50.010;19.972;2023-05-24T00:21:50;98396.63;;;21.34;73.15
35655;BME280;21773;50.010;19.972;2023-05-24T00:24:55;98401.00;;;21.35;72.79
35655;BME280;21773;50.010;19.972;2023-05-24T00:27:58;98397.47;;;21.34;73.44
35655;BME280;21773;50.010;19.972;2023-05-24T00:31:02;98399.69;;;21.32;72.93
35655;BME280;21773;50.010;19.972;2023-05-24T00:34:05;98392.56;;;21.31;72.87
35655;BME280;21773;50.010;19.972;2023-05-24T00:37:09;98389.53;;;21.33;72.43
35655;BME280;21773;50.010;19.972;2023-05-24T00:40:15;98390.63;;;21.32;72.61
35655;BME280;21773;50.010;19.972;2023-05-24T00:43:18;98388.50;;;21.29;72.32
35655;BME280;21773;50.010;19.972;2023-05-24T00:46:26;98382.56;;;21.08;73.41
35655;BME280;21773;50.010;19.972;2023-05-24T00:49:30;98385.44;;;21.16;72.80
35655;BME280;21773;50.010;19.972;2023-05-24T00:52:34;98390.34;;;21.20;73.22
35655;BME280;21773;50.010;19.972;2023-05-24T00:55:39;98390.34;;;21.20;72.85
35655;BME280;21773;50.010;19.972;2023-05-24T00:58:43;98393.38;;;21.18;73.64
35655;BME280;21773;50.010;19.972;2023-05-24T01:01:46;98395.19;;;21.23;73.63
35655;BME280;21773;50.010;19.972;2023-05-24T01:04:50;98399.75;;;21.13;73.47
35655;BME280;21773;50.010;19.972;2023-05-24T01:07:59;98400.03;;;21.12;74.20
35655;BME280;21773;50.010;19.972;2023-05-24T01:11:13;98397.03;;;21.13;73.87
35655;BME280;21773;50.010;19.972;2023-05-24T01:14:26;98400.03;;;21.12;74.79
35655;BME280;21773;50.010;19.972;2023-05-24T01:17:35;98390.78;;;21.08;74.52
35655;BME280;21773;50.010;19.972;2023-05-24T01:20:41;98395.69;;;21.11;74.16
35655;BME280;21773;50.010;19.972;2023-05-24T01:23:57;98399.19;;;21.11;74.76
35655;BME280;21773;50.010;19.972;2023-05-24T01:27:07;98403.09;;;21.10;74.28
35655;BME280;21773;50.010;19.972;2023-05-24T01:30:12;98411.31;;;21.10;74.95
35655;BME280;21773;50.010;19.972;2023-05-24T01:33:16;98407.75;;;21.10;74.64
35655;BME280;21773;50.010;19.972;2023-05-24T01:36:19;98408.56;;;21.10;74.52
35655;BME280;21773;50.010;19.972;2023-05-24T01:39:26;98421.88;;;21.17;74.10
35655;BME280;21773;50.010;19.972;2023-05-24T01:42:37;98413.66;;;21.17;74.75
35655;BME280;21773;50.010;19.972;2023-05-24T01:45:49;98418.25;;;21.22;73.94
35655;BME280;21773;50.010;19.972;2023-05-24T01:49:00;98409.72;;;21.23;73.86
35655;BME280;21773;50.010;19.972;2023-05-24T01:52:10;98415.50;;;21.22;74.57
35655;BME280;21773;50.010;19.972;2023-05-24T01:55:16;98410.34;;;21.20;74.80
35655;BME280;21773;50.010;19.972;2023-05-24T01:58:22;98409.53;;;21.20;74.85
35655;BME280;21773;50.010;19.972;2023-05-24T02:01:27;98417.41;;;21.21;74.53
35655;BME280;21773;50.010;19.972;2023-05-24T02:04:31;98408.25;;;21.12;75.65
35655;BME280;21773;50.010;19.972;2023-05-24T02:07:34;98402.75;;;21.12;75.72
35655;BME280;21773;50.010;19.972;2023-05-24T02:10:37;98408.94;;;21.04;76.55
35655;BME280;21773;50.010;19.972;2023-05-24T02:13:43;98403.75;;;21.02;76.49
35655;BME280;21773;50.010;19.972;2023-05-24T02:16:46;98400.81;;;20.99;76.75
35655;BME280;21773;50.010;19.972;2023-05-24T02:19:53;98409.84;;;20.99;77.28
35655;BME280;21773;50.010;19.972;2023-05-24T02:22:56;98407.41;;;20.98;77.83
35655;BME280;21773;50.010;19.972;2023-05-24T02:29:05;98411.56;;;20.95;77.92
35655;BME280;21773;50.010;19.972;2023-05-24T02:32:08;98408.50;;;20.97;77.85
35655;BME280;21773;50.010;19.972;2023-05-24T02:35:12;98417.25;;;20.99;77.96
35655;BME280;21773;50.010;19.972;2023-05-24T02:38:15;98409.13;;;20.94;78.68
35655;BME280;21773;50.010;19.972;2023-05-24T02:41:19;98403.53;;;20.85;79.53
35655;BME280;21773;50.010;19.972;2023-05-24T02:44:24;98408.31;;;20.93;79.15
35655;BME280;21773;50.010;19.972;2023-05-24T02:47:28;98407.19;;;20.94;79.57
35655;BME280;21773;50.010;19.972;2023-05-24T02:50:32;98408.03;;;20.95;79.22
35655;BME280;21773;50.010;19.972;2023-05-24T02:53:35;98412.38;;;20.96;79.47
35655;BME280;21773;50.010;19.972;2023-05-24T02:56:39;98421.19;;;20.93;80.01
35655;BME280;21773;50.010;19.972;2023-05-24T02:59:44;98416.81;;;20.92;80.14
35655;BME280;21773;50.010;19.972;2023-05-24T03:02:47;98419.06;;;20.90;80.80
35655;BME280;21773;50.010;19.972;2023-05-24T03:05:52;98404.50;;;20.75;81.17
35655;BME280;21773;50.010;19.972;2023-05-24T03:08:55;98421.50;;;20.91;80.73
35655;BME280;21773;50.010;19.972;2023-05-24T03:12:00;98420.91;;;20.94;81.18
35655;BME280;21773;50.010;19.972;2023-05-24T03:15:09;98419.78;;;20.95;81.17
35655;BME280;21773;50.010;19.972;2023-05-24T03:18:12;98423.75;;;21.03;80.61
35655;BME280;21773;50.010;19.972;2023-05-24T03:21:17;98419.63;;;21.05;80.90
35655;BME280;21773;50.010;19.972;2023-05-24T03:24:22;98418.47;;;21.06;81.08
35655;BME280;21773;50.010;19.972;2023-05-24T03:27:27;98429.78;;;21.05;80.62
35655;BME280;21773;50.010;19.972;2023-05-24T03:30:32;98428.22;;;20.99;81.07
35655;BME280;21773;50.010;19.972;2023-05-24T03:33:35;98432.50;;;21.05;81.48
35655;BME280;21773;50.010;19.972;2023-05-24T03:36:39;98443.75;;;21.03;81.07
35655;BME280;21773;50.010;19.972;2023-05-24T03:39:43;98431.97;;;21.03;81.72
35655;BME280;21773;50.010;19.972;2023-05-24T03:43:05;98446.50;;;21.03;81.63
35655;BME280;21773;50.010;19.972;2023-05-24T03:46:23;98439.09;;;21.04;81.52
35655;BME280;21773;50.010;19.972;2023-05-24T03:49:26;98446.50;;;21.03;82.06
35655;BME280;21773;50.010;19.972;2023-05-24T03:52:30;98449.44;;;21.07;81.82
35655;BME280;21773;50.010;19.972;2023-05-24T03:55:33;98455.84;;;21.02;82.12
35655;BME280;21773;50.010;19.972;2023-05-24T03:58:37;98456.06;;;21.06;81.76
35655;BME280;21773;50.010;19.972;2023-05-24T04:01:42;98464.56;;;21.04;81.86
35655;BME280;21773;50.010;19.972;2023-05-24T04:04:45;98467.03;;;21.06;82.01
35655;BME280;21773;50.010;19.972;2023-05-24T04:07:49;98464.28;;;21.06;82.28
35655;BME280;21773;50.010;19.972;2023-05-24T04:10:53;98461.69;;;21.14;81.47
35655;BME280;21773;50.010;19.972;2023-05-24T04:13:56;98469.31;;;21.17;80.94
35655;BME280;21773;50.010;19.972;2023-05-24T04:17:04;98485.47;;;21.19;80.82
35655;BME280;21773;50.010;19.972;2023-05-24T04:20:09;98482.56;;;21.10;81.77
35655;BME280;21773;50.010;19.972;2023-05-24T04:23:13;98474.13;;;21.07;81.34
35655;BME280;21773;50.010;19.972;2023-05-24T04:26:18;98486.91;;;21.11;81.48
35655;BME280;21773;50.010;19.972;2023-05-24T04:29:22;98491.63;;;21.11;81.31
35655;BME280;21773;50.010;19.972;2023-05-24T04:32:28;98501.72;;;21.15;80.70
35655;BME280;21773;50.010;19.972;2023-05-24T04:35:33;98503.84;;;21.18;80.74
35655;BME280;21773;50.010;19.972;2023-05-24T04:38:36;98502.50;;;21.16;79.97
35655;BME280;21773;50.010;19.972;2023-05-24T04:41:41;98510.81;;;21.11;79.86
35655;BME280;21773;50.010;19.972;2023-05-24T04:44:44;98517.38;;;21.10;80.25
35655;BME280;21773;50.010;19.972;2023-05-24T04:47:49;98522.34;;;21.08;79.80
35655;BME280;21773;50.010;19.972;2023-05-24T04:50:53;98508.59;;;20.94;79.50
35655;BME280;21773;50.010;19.972;2023-05-24T04:53:57;98520.41;;;21.08;79.54
35655;BME280;21773;50.010;19.972;2023-05-24T04:57:01;98522.56;;;21.11;78.69
35655;BME280;21773;50.010;19.972;2023-05-24T05:00:06;98531.09;;;21.10;78.22
35655;BME280;21773;50.010;19.972;2023-05-24T05:03:12;98535.63;;;21.01;77.54
35655;BME280;21773;50.010;19.972;2023-05-24T05:06:16;98533.69;;;21.01;77.46
35655;BME280;21773;50.010;19.972;2023-05-24T05:09:19;98539.31;;;21.10;76.88
35655;BME280;21773;50.010;19.972;2023-05-24T05:12:23;98546.94;;;21.13;77.47
35655;BME280;21773;50.010;19.972;2023-05-24T05:15:26;98546.94;;;21.13;77.44
35655;BME280;21773;50.010;19.972;2023-05-24T05:18:31;98555.72;;;21.15;77.06
35655;BME280;21773;50.010;19.972;2023-05-24T05:21:35;98559.59;;;21.09;76.90
35655;BME280;21773;50.010;19.972;2023-05-24T05:24:41;98565.25;;;21.17;76.79
35655;BME280;21773;50.010;19.972;2023-05-24T05:27:44;98568.81;;;21.18;76.16
35655;BME280;21773;50.010;19.972;2023-05-24T05:30:47;98557.78;;;21.23;75.54
35655;BME280;21773;50.010;19.972;2023-05-24T05:33:52;98559.13;;;21.26;74.97
35655;BME280;21773;50.010;19.972;2023-05-24T05:36:55;98567.84;;;21.28;74.52
35655;BME280;21773;50.010;19.972;2023-05-24T05:39:58;98568.28;;;21.35;74.03
35655;BME280;21773;50.010;19.972;2023-05-24T05:43:02;98574.19;;;21.42;73.93
35655;BME280;21773;50.010;19.972;2023-05-24T05:46:06;98570.03;;;21.44;73.37
35655;BME280;21773;50.010;19.972;2023-05-24T05:49:11;98576.56;;;21.48;72.59
35655;BME280;21773;50.010;19.972;2023-05-24T05:52:14;98578.31;;;21.58;72.46
35655;BME280;21773;50.010;19.972;2023-05-24T05:55:18;98569.53;;;21.56;72.38
35655;BME280;21773;50.010;19.972;2023-05-24T05:58:21;98582.19;;;21.71;72.47
35655;BME280;21773;50.010;19.972;2023-05-24T06:01:24;98590.41;;;21.71;71.86
35655;BME280;21773;50.010;19.972;2023-05-24T06:04:29;98591.88;;;21.82;71.37
35655;BME280;21773;50.010;19.972;2023-05-24T06:07:32;98596.84;;;21.80;71.54
35655;BME280;21773;50.010;19.972;2023-05-24T06:10:36;98598.69;;;21.84;71.55
35655;BME280;21773;50.010;19.972;2023-05-24T06:13:40;98606.69;;;21.81;70.83
35655;BME280;21773;50.010;19.972;2023-05-24T06:16:43;98598.19;;;21.82;71.29
35655;BME280;21773;50.010;19.972;2023-05-24T06:19:48;98603.38;;;21.84;70.85
35655;BME280;21773;50.010;19.972;2023-05-24T06:22:52;98605.50;;;21.87;70.51
35655;BME280;21773;50.010;19.972;2023-05-24T06:25:56;98610.69;;;21.88;69.94
35655;BME280;21773;50.010;19.972;2023-05-24T06:28:59;98617.44;;;21.96;70.22
35655;BME280;21773;50.010;19.972;2023-05-24T06:32:03;98619.91;;;21.97;71.03
35655;BME280;21773;50.010;19.972;2023-05-24T06:35:09;98625.09;;;21.99;70.87
35655;BME280;21773;50.010;19.972;2023-05-24T06:38:12;98628.72;;;21.94;69.38
35655;BME280;21773;50.010;19.972;2023-05-24T06:41:16;98636.84;;;21.99;70.87
35655;BME280;21773;50.010;19.972;2023-05-24T06:44:19;98636.84;;;21.99;70.25
35655;BME280;21773;50.010;19.972;2023-05-24T06:47:26;98643.78;;;21.97;70.12
35655;BME280;21773;50.010;19.972;2023-05-24T06:50:31;98647.41;;;21.92;69.74
35655;BME280;21773;50.010;19.972;2023-05-24T06:53:34;98644.31;;;21.99;69.69
35655;BME280;21773;50.010;19.972;2023-05-24T06:56:37;98650.66;;;21.94;69.40
35655;BME280;21773;50.010;19.972;2023-05-24T06:59:41;98655.72;;;21.87;69.97
35655;BME280;21773;50.010;19.972;2023-05-24T07:02:44;98659.06;;;21.84;70.43
35655;BME280;21773;50.010;19.972;2023-05-24T07:05:49;98653.06;;;21.82;71.22
35655;BME280;21773;50.010;19.972;2023-05-24T07:08:52;98657.94;;;21.85;72.05
35655;BME280;21773;50.010;19.972;2023-05-24T07:11:56;98668.41;;;21.83;72.92
35655;BME280;21773;50.010;19.972;2023-05-24T07:14:59;98667.69;;;21.78;71.80
35655;BME280;21773;50.010;19.972;2023-05-24T07:18:03;98669.81;;;21.81;71.83
35655;BME280;21773;50.010;19.972;2023-05-24T07:21:08;98673.59;;;21.85;72.24
35655;BME280;21773;50.010;19.972;2023-05-24T07:24:11;98676.94;;;21.82;72.24
35655;BME280;21773;50.010;19.972;2023-05-24T07:27:17;98675.00;;;21.82;73.61
35655;BME280;21773;50.010;19.972;2023-05-24T07:30:21;98684.47;;;21.90;73.52
35655;BME280;21773;50.010;19.972;2023-05-24T07:33:34;98687.41;;;21.98;72.70
35655;BME280;21773;50.010;19.972;2023-05-24T07:36:39;98689.53;;;22.01;72.42
35655;BME280;21773;50.010;19.972;2023-05-24T07:39:43;98695.31;;;22.00;72.04
35655;BME280;21773;50.010;19.972;2023-05-24T07:42:46;98700.72;;;22.05;72.38
35655;BME280;21773;50.010;19.972;2023-05-24T07:45:50;98699.31;;;22.08;71.88
35655;BME280;21773;50.010;19.972;2023-05-24T07:48:53;98705.03;;;22.11;72.61
35655;BME280;21773;50.010;19.972;2023-05-24T07:51:58;98705.22;;;22.15;72.29
35655;BME280;21773;50.010;19.972;2023-05-24T07:55:01;98712.97;;;22.13;71.74
35655;BME280;21773;50.010;19.972;2023-05-24T07:58:05;98711.28;;;21.98;71.89
35655;BME280;21773;50.010;19.972;2023-05-24T08:01:08;98721.66;;;21.82;71.70
35655;BME280;21773;50.010;19.972;2023-05-24T08:04:12;98715.97;;;21.60;73.39
35655;BME280;21773;50.010;19.972;2023-05-24T08:07:17;98725.56;;;21.44;73.60
35655;BME280;21773;50.010;19.972;2023-05-24T08:10:20;98731.19;;;21.34;72.36
35655;BME280;21773;50.010;19.972;2023-05-24T08:13:24;98731.75;;;21.31;72.91
35655;BME280;21773;50.010;19.972;2023-05-24T08:16:27;98738.25;;;21.16;72.73
35655;BME280;21773;50.010;19.972;2023-05-24T08:19:31;98745.09;;;20.95;73.30
35655;BME280;21773;50.010;19.972;2023-05-24T08:22:38;98746.53;;;20.87;73.60
35655;BME280;21773;50.010;19.972;2023-05-24T08:25:41;98740.94;;;20.73;73.86
35655;BME280;21773;50.010;19.972;2023-05-24T08:28:46;98746.69;;;20.48;74.69
35655;BME280;21773;50.010;19.972;2023-05-24T08:31:49;98754.41;;;20.46;75.52
35655;BME280;21773;50.010;19.972;2023-05-24T08:34:53;98756.13;;;20.37;75.68
35655;BME280;21773;50.010;19.972;2023-05-24T08:38:09;98760.75;;;20.42;75.19
35655;BME280;21773;50.010;19.972;2023-05-24T08:41:12;98768.69;;;20.38;74.87
35655;BME280;21773;50.010;19.972;2023-05-24T08:44:15;98768.75;;;20.33;75.00
35655;BME280;21773;50.010;19.972;2023-05-24T08:47:19;98771.25;;;20.24;76.54
35655;BME280;21773;50.010;19.972;2023-05-24T08:50:24;98768.78;;;20.28;75.99
35655;BME280;21773;50.010;19.972;2023-05-24T08:53:29;98778.09;;;20.32;76.69
35655;BME280;21773;50.010;19.972;2023-05-24T08:56:34;98783.34;;;20.18;76.69
35655;BME280;21773;50.010;19.972;2023-05-24T08:59:40;98790.31;;;20.06;76.84
35655;BME280;21773;50.010;19.972;2023-05-24T09:02:44;98802.16;;;19.96;76.88
35655;BME280;21773;50.010;19.972;2023-05-24T09:05:49;98792.84;;;19.97;76.97
35655;BME280;21773;50.010;19.972;2023-05-24T09:08:54;98803.22;;;20.00;77.03
35655;BME280;21773;50.010;19.972;2023-05-24T09:12:01;98799.91;;;20.03;76.65
35655;BME280;21773;50.010;19.972;2023-05-24T09:15:07;98814.94;;;20.06;76.46
35655;BME280;21773;50.010;19.972;2023-05-24T09:18:10;98805.44;;;19.98;76.60
35655;BME280;21773;50.010;19.972;2023-05-24T09:21:14;98815.59;;;19.93;76.22
35655;BME280;21773;50.010;19.972;2023-05-24T09:24:22;98820.78;;;19.89;76.67
35655;BME280;21773;50.010;19.972;2023-05-24T09:27:25;98811.63;;;19.65;76.75
35655;BME280;21773;50.010;19.972;2023-05-24T09:30:29;98839.53;;;19.67;76.06
35655;BME280;21773;50.010;19.972;2023-05-24T09:33:33;98835.50;;;19.54;76.35
35655;BME280;21773;50.010;19.972;2023-05-24T09:36:39;98845.13;;;19.31;77.03
35655;BME280;21773;50.010;19.972;2023-05-24T09:39:46;98855.25;;;19.26;77.43
35655;BME280;21773;50.010;19.972;2023-05-24T09:43:01;98852.91;;;18.99;78.57
35655;BME280;21773;50.010;19.972;2023-05-24T09:46:05;98855.09;;;18.87;79.70
35655;BME280;21773;50.010;19.972;2023-05-24T09:49:08;98855.66;;;18.89;79.61
35655;BME280;21773;50.010;19.972;2023-05-24T09:52:12;98855.91;;;18.87;80.38
35655;BME280;21773;50.010;19.972;2023-05-24T09:55:18;98858.66;;;18.87;80.05
35655;BME280;21773;50.010;19.972;2023-05-24T09:58:22;98857.00;;;18.91;79.75
35655;BME280;21773;50.010;19.972;2023-05-24T10:01:31;98864.13;;;18.87;80.50
35655;BME280;21773;50.010;19.972;2023-05-24T10:04:36;98866.03;;;18.77;80.19
35655;BME280;21773;50.010;19.972;2023-05-24T10:07:39;98874.22;;;18.82;79.60
35655;BME280;21773;50.010;19.972;2023-05-24T10:10:44;98882.41;;;18.82;80.57
35655;BME280;21773;50.010;19.972;2023-05-24T10:13:48;98883.25;;;18.72;80.67
35655;BME280;21773;50.010;19.972;2023-05-24T10:16:52;98885.97;;;18.77;80.52
35655;BME280;21773;50.010;19.972;2023-05-24T10:19:56;98889.53;;;18.57;80.64
35655;BME280;21773;50.010;19.972;2023-05-24T10:23:00;98887.06;;;18.51;81.02
35655;BME280;21773;50.010;19.972;2023-05-24T10:26:08;98889.25;;;18.49;81.26
35655;BME280;21773;50.010;19.972;2023-05-24T10:29:23;98887.91;;;18.51;80.80
35655;BME280;21773;50.010;19.972;2023-05-24T10:32:32;98900.16;;;18.49;80.19
35655;BME280;21773;50.010;19.972;2023-05-24T10:35:38;98894.44;;;18.45;79.68
35655;BME280;21773;50.010;19.972;2023-05-24T10:38:45;98885.19;;;18.56;79.18
35655;BME280;21773;50.010;19.972;2023-05-24T10:41:50;98890.91;;;18.55;80.11
35655;BME280;21773;50.010;19.972;2023-05-24T10:44:55;98899.38;;;18.58;80.26
35655;BME280;21773;50.010;19.972;2023-05-24T10:48:00;98902.66;;;18.76;79.33
35655;BME280;21773;50.010;19.972;2023-05-24T10:51:30;98900.16;;;18.99;78.04
35655;BME280;21773;50.010;19.972;2023-05-24T10:54:34;98905.59;;;19.15;77.98
35655;BME280;21773;50.010;19.972;2023-05-24T10:57:49;98905.59;;;19.20;77.38
35655;BME280;21773;50.010;19.972;2023-05-24T11:00:54;98904.47;;;19.21;76.27
35655;BME280;21773;50.010;19.972;2023-05-24T11:04:07;98911.31;;;19.28;75.44
35655;BME280;21773;50.010;19.972;2023-05-24T11:07:13;98912.97;;;19.24;75.42
35655;BME280;21773;50.010;19.972;2023-05-24T11:10:29;98911.81;;;19.30;75.14
35655;BME280;21773;50.010;19.972;2023-05-24T11:13:35;98918.66;;;19.48;74.89
35655;BME280;21773;50.010;19.972;2023-05-24T11:16:39;98927.66;;;19.54;74.02
35655;BME280;21773;50.010;19.972;2023-05-24T11:19:48;98916.69;;;19.64;72.56
35655;BME280;21773;50.010;19.972;2023-05-24T11:22:53;98924.00;;;19.78;71.71
35655;BME280;21773;50.010;19.972;2023-05-24T11:25:56;98924.56;;;19.75;70.66
35655;BME280;21773;50.010;19.972;2023-05-24T11:29:02;98927.84;;;19.77;69.75
35655;BME280;21773;50.010;19.972;2023-05-24T11:32:06;98927.59;;;19.74;69.77
35655;BME280;21773;50.010;19.972;2023-05-24T11:35:11;98933.97;;;19.54;70.03
35655;BME280;21773;50.010;19.972;2023-05-24T11:38:15;98927.38;;;19.50;69.42
35655;BME280;21773;50.010;19.972;2023-05-24T11:41:19;98928.78;;;19.37;69.56
35655;BME280;21773;50.010;19.972;2023-05-24T11:44:25;98921.97;;;19.25;69.65
35655;BME280;21773;50.010;19.972;2023-05-24T11:47:29;98931.25;;;19.29;69.46
35655;BME280;21773;50.010;19.972;2023-05-24T11:50:38;98924.41;;;19.36;69.55
35655;BME280;21773;50.010;19.972;2023-05-24T11:53:50;98925.47;;;19.40;69.63
35655;BME280;21773;50.010;19.972;2023-05-24T11:56:55;98935.31;;;19.52;69.72
35655;BME280;21773;50.010;19.972;2023-05-24T12:00:01;98940.19;;;19.65;69.98
35655;BME280;21773;50.010;19.972;2023-05-24T12:03:07;98941.50;;;19.82;68.97
35655;BME280;21773;50.010;19.972;2023-05-24T12:06:11;98937.09;;;19.86;68.69
35655;BME280;21773;50.010;19.972;2023-05-24T12:09:15;98935.47;;;19.80;68.17
35655;BME280;21773;50.010;19.972;2023-05-24T12:12:20;98938.44;;;19.89;67.66
35655;BME280;21773;50.010;19.972;2023-05-24T12:15:36;98935.94;;;20.03;68.27
35655;BME280;21773;50.010;19.972;2023-05-24T12:18:39;98939.72;;;20.12;67.14
35655;BME280;21773;50.010;19.972;2023-05-24T12:22:03;98945.69;;;20.14;66.38
35655;BME280;21773;50.010;19.972;2023-05-24T12:25:08;98946.81;;;20.13;66.16
35655;BME280;21773;50.010;19.972;2023-05-24T12:28:11;98939.75;;;20.07;65.49
35655;BME280;21773;50.010;19.972;2023-05-24T12:31:16;98924.41;;;20.06;65.31
35655;BME280;21773;50.010;19.972;2023-05-24T12:34:20;98939.06;;;20.25;64.88
35655;BME280;21773;50.010;19.972;2023-05-24T12:37:23;98933.56;;;20.30;64.99
35655;BME280;21773;50.010;19.972;2023-05-24T12:40:26;98941.53;;;20.26;63.93
35655;BME280;21773;50.010;19.972;2023-05-24T12:43:30;98938.78;;;20.31;63.63
35655;BME280;21773;50.010;19.972;2023-05-24T12:46:35;98945.13;;;20.22;63.92
35655;BME280;21773;50.010;19.972;2023-05-24T12:49:40;98939.38;;;20.18;64.55
35655;BME280;21773;50.010;19.972;2023-05-24T12:52:44;98931.97;;;20.24;64.62
35655;BME280;21773;50.010;19.972;2023-05-24T12:55:49;98940.75;;;20.21;63.74
35655;BME280;21773;50.010;19.972;2023-05-24T12:58:56;98920.09;;;19.95;64.66
35655;BME280;21773;50.010;19.972;2023-05-24T13:02:02;98935.91;;;20.08;64.68
35655;BME280;21773;50.010;19.972;2023-05-24T13:05:06;98937.03;;;20.02;64.58
35655;BME280;21773;50.010;19.972;2023-05-24T13:08:12;98943.00;;;20.04;63.79
35655;BME280;21773;50.010;19.972;2023-05-24T13:11:15;98932.00;;;20.14;63.52
35655;BME280;21773;50.010;19.972;2023-05-24T13:14:19;98928.41;;;20.23;62.80
35655;BME280;21773;50.010;19.972;2023-05-24T13:17:23;98931.91;;;20.29;62.81
35655;BME280;21773;50.010;19.972;2023-05-24T13:20:27;98936.03;;;20.37;62.42
35655;BME280;21773;50.010;19.972;2023-05-24T13:23:32;98935.13;;;20.46;61.93
35655;BME280;21773;50.010;19.972;2023-05-24T13:26:35;98937.78;;;20.61;61.41
35655;BME280;21773;50.010;19.972;2023-05-24T13:29:39;98946.31;;;20.55;61.19
35655;BME280;21773;50.010;19.972;2023-05-24T13:33:02;98936.72;;;20.57;61.55
35655;BME280;21773;50.010;19.972;2023-05-24T13:36:06;98943.59;;;20.50;61.48
35655;BME280;21773;50.010;19.972;2023-05-24T13:39:10;98938.66;;;20.52;60.89
35655;BME280;21773;50.010;19.972;2023-05-24T13:42:17;98944.66;;;20.54;61.35
35655;BME280;21773;50.010;19.972;2023-05-24T13:45:20;98939.59;;;20.37;61.19
35655;BME280;21773;50.010;19.972;2023-05-24T13:48:25;98943.41;;;20.36;61.36
35655;BME280;21773;50.010;19.972;2023-05-24T13:51:29;98938.47;;;20.38;61.80
35655;BME280;21773;50.010;19.972;2023-05-24T13:54:32;98951.81;;;20.50;60.92
35655;BME280;21773;50.010;19.972;2023-05-24T13:57:36;98944.31;;;20.65;60.98
35655;BME280;21773;50.010;19.972;2023-05-24T14:00:52;98937.72;;;20.66;60.10
35655;BME280;21773;50.010;19.972;2023-05-24T14:03:59;98943.47;;;20.65;60.35
35655;BME280;21773;50.010;19.972;2023-05-24T14:07:03;98942.66;;;20.64;60.62
35655;BME280;21773;50.010;19.972;2023-05-24T14:10:10;98945.41;;;20.64;60.40
35655;BME280;21773;50.010;19.972;2023-05-24T14:13:13;98945.41;;;20.64;59.90
35655;BME280;21773;50.010;19.972;2023-05-24T14:16:36;98944.53;;;20.69;60.59
35655;BME280;21773;50.010;19.972;2023-05-24T14:19:41;98936.94;;;20.61;59.65
35655;BME280;21773;50.010;19.972;2023-05-24T14:22:44;98941.81;;;20.69;60.14
35655;BME280;21773;50.010;19.972;2023-05-24T14:25:48;98943.78;;;20.58;60.22
35655;BME280;21773;50.010;19.972;2023-05-24T14:28:52;98943.31;;;20.51;60.03
35655;BME280;21773;50.010;19.972;2023-05-24T14:31:58;98936.84;;;20.37;60.27
35655;BME280;21773;50.010;19.972;2023-05-24T14:35:03;98943.44;;;20.26;60.66
35655;BME280;21773;50.010;19.972;2023-05-24T14:38:08;98939.63;;;20.32;61.20
35655;BME280;21773;50.010;19.972;2023-05-24T14:41:13;98945.03;;;20.42;60.67
35655;BME280;21773;50.010;19.972;2023-05-24T14:44:17;98945.50;;;20.49;61.15
35655;BME280;21773;50.010;19.972;2023-05-24T14:47:20;98937.50;;;20.58;61.35
35655;BME280;21773;50.010;19.972;2023-05-24T14:50:25;98936.72;;;20.57;61.08
35655;BME280;21773;50.010;19.972;2023-05-24T14:53:28;98948.13;;;20.64;60.19
35655;BME280;21773;50.010;19.972;2023-05-24T14:56:32;98954.78;;;20.53;60.22
35655;BME280;21773;50.010;19.972;2023-05-24T14:59:35;98953.00;;;20.33;60.06
35655;BME280;21773;50.010;19.972;2023-05-24T15:02:39;98957.09;;;20.41;60.34
35655;BME280;21773;50.010;19.972;2023-05-24T15:05:43;98960.56;;;20.52;61.02
35655;BME280;21773;50.010;19.972;2023-05-24T15:08:47;98959.16;;;20.54;60.08
35655;BME280;21773;50.010;19.972;2023-05-24T15:11:50;98958.28;;;20.64;60.36
35655;BME280;21773;50.010;19.972;2023-05-24T15:14:54;98962.72;;;20.55;59.99
35655;BME280;21773;50.010;19.972;2023-05-24T15:17:57;98968.22;;;20.55;60.05
35655;BME280;21773;50.010;19.972;2023-05-24T15:21:02;98961.06;;;20.59;60.47
35655;BME280;21773;50.010;19.972;2023-05-24T15:24:06;98959.69;;;20.61;60.67
35655;BME280;21773;50.010;19.972;2023-05-24T15:27:10;98953.84;;;20.68;60.22
35655;BME280;21773;50.010;19.972;2023-05-24T15:30:13;98953.50;;;20.80;60.18
35655;BME280;21773;50.010;19.972;2023-05-24T15:33:18;98954.25;;;20.90;59.88
35655;BME280;21773;50.010;19.972;2023-05-24T15:36:23;98951.03;;;20.78;59.49
35655;BME280;21773;50.010;19.972;2023-05-24T15:39:26;98957.94;;;20.75;58.84
35655;BME280;21773;50.010;19.972;2023-05-24T15:42:30;98962.63;;;20.70;59.06
35655;BME280;21773;50.010;19.972;2023-05-24T15:45:33;98961.22;;;20.72;58.92
35655;BME280;21773;50.010;19.972;2023-05-24T15:48:37;98974.47;;;20.60;59.44
35655;BME280;21773;50.010;19.972;2023-05-24T15:51:41;98968.13;;;20.65;59.38
35655;BME280;21773;50.010;19.972;2023-05-24T15:55:04;98974.50;;;20.55;59.94
35655;BME280;21773;50.010;19.972;2023-05-24T15:58:08;98977.84;;;20.52;59.71
35655;BME280;21773;50.010;19.972;2023-05-24T16:01:14;98974.31;;;20.47;60.06
35655;BME280;21773;50.010;19.972;2023-05-24T16:04:17;98975.09;;;20.52;60.85
35655;BME280;21773;50.010;19.972;2023-05-24T16:07:22;98984.41;;;20.51;61.15
35655;BME280;21773;50.010;19.972;2023-05-24T16:10:25;98982.28;;;20.38;61.16